Aérodrome :
LOGIN :

S'inscrire | Disclaimer

   EN    FR    IT 

 










Légende :    VFR   VFR Marginal   IFR   IFR Intensif   IFR Très Intensif
Visi : 
Plafond : 
>= 8 km
>= 3000ft
5 à 8 km
1000 à 3000 ft
1500m à 5 km
500 à 1000 ft
800 à 1500m
200 à 500 ft
< 800m
< 200 ft
Symboles :   Orages  Brouillard  Fortes neiges  Fortes précipitations  Vent > 20 kt
SIGMETs :   Divers  Orages  Givrage  Turbulence  Onde Orograph.  Cendres Volcan.






- Altitude de l'aérodrome : 412 ft
- Code IATA : ORE


LFOJ - Orleans

DERNIER METAR :
  • 230230Z AUTO 05008KT 7000 NSC 10/09 Q1015

METARs EXPIRÉS :
  • 230200Z AUTO 05010KT 7000 FEW009 BKN120 OVC150 10/09 Q1015
  • 230130Z AUTO 05011KT 7000 FEW009 SCT090 OVC110 10/10 Q1015
  • 230100Z AUTO 05010KT 8000 NSC 10/10 Q1016
  • 230030Z AUTO 05011KT 9000 NSC 10/10 Q1016
  • 230000Z AUTO 05010KT 8000 FEW006 BKN110 OVC140 10/10 Q1016

TAF TAF LFOJ
Valide du 22 à 15h jusqu'au 23 à 15h UTC


221400Z 2215/2315 05010KT 9999 BKN015
BECMG 2219/2221 BKN007
PROB40
TEMPO 2219/2223 4500 -RADZ
BECMG 2304/2306 2000 BR
BECMG 2309/2311 8000 NSW SCT007 BKN014



MET'MAP, la Météo Aéronautique d'un coup d'oeil ! - Copyright ORBIFLY Décembre 2007 - Disclaimer

ORBIFLY MET'MAP TEAM :

Programmation & Développement : Alexandra Zaïnal
Conception & Développement : Baudouin d'Aumeries
Co-Programmation & Développement : Marc-Olivier Méhu
Soutien technique & logistique : Manuel Goepfert

Contact : metmap@orbifly.com




SOURCES & CREDITS :

   NOAA